Aérodrome :
LOGIN :

S'inscrire | Disclaimer

   EN    FR    IT 

 










Légende :    VFR   VFR Marginal   IFR   IFR Intensif   IFR Très Intensif
Visi : 
Plafond : 
>= 8 km
>= 3000ft
5 à 8 km
1000 à 3000 ft
1500m à 5 km
500 à 1000 ft
800 à 1500m
200 à 500 ft
< 800m
< 200 ft
Symboles :   Orages  Brouillard  Fortes neiges  Fortes précipitations  Vent > 20 kt
SIGMETs :   Divers  Orages  Givrage  Turbulence  Onde Orograph.  Cendres Volcan.






- Altitude de l'aérodrome : 423 ft
- Code IATA : PIS


LFBI - Poitiers

DERNIER METAR :
  • 170300Z AUTO 31006KT 9999 BKN009 OVC014 06/06 Q1023 BECMG BKN040

METARs EXPIRÉS :
  • 170230Z AUTO 29004KT 9999 FEW012 SCT038 05/05 Q1023
  • 170200Z AUTO 32005KT 9999 FEW008 BKN014 BKN038 06/05 Q1022 BECMG BKN040
  • 170130Z AUTO 31004KT 9999 SCT018 BKN039 BKN066 06/06 Q1022 NOSIG
  • 170100Z AUTO 30004KT 9999 FEW003 BKN039 BKN048 07/06 Q1022 TEMPO OVC010
  • 170030Z AUTO 32005KT 9999 -DZ SCT011 SCT018 BKN025 07/06 Q1022 TEMPO OVC010

TAF AMD TAF LFBI
Valide du 17 à 01h jusqu'au 18 à 00h UTC


170118Z 1701/1724 32010KT 9999 BKN040
BECMG 1710/1712 SCT020
BECMG 1718/1720 VRB02KT



MET'MAP, la Météo Aéronautique d'un coup d'oeil ! - Copyright ORBIFLY Décembre 2007 - Disclaimer

ORBIFLY MET'MAP TEAM :

Programmation & Développement : Alexandra Zaïnal
Sur une idée originale de : Baudouin d'Aumeries
Assistance à la programmation : Marc-Olivier Méhu
Soutien technique & logistique : Manuel Goepfert

Contact : metmap@orbifly.com




SOURCES & CREDITS :

   NOAA